sensor_id;sensor_type;location;lat;lon;timestamp;P1;durP1;ratioP1;P2;durP2;ratioP2
54845;SDS011;53889;50.084;8.646;2023-05-07T00:01:34;4.18;;;1.75;;
54845;SDS011;53889;50.084;8.646;2023-05-07T00:04:01;4.03;;;1.90;;
54845;SDS011;53889;50.084;8.646;2023-05-07T00:06:28;3.80;;;1.60;;
54845;SDS011;53889;50.084;8.646;2023-05-07T00:08:55;2.65;;;1.52;;
54845;SDS011;53889;50.084;8.646;2023-05-07T00:11:22;3.97;;;1.60;;
54845;SDS011;53889;50.084;8.646;2023-05-07T00:13:49;2.28;;;1.50;;
54845;SDS011;53889;50.084;8.646;2023-05-07T00:16:17;3.42;;;1.73;;
54845;SDS011;53889;50.084;8.646;2023-05-07T00:18:44;4.20;;;1.60;;
54845;SDS011;53889;50.084;8.646;2023-05-07T00:21:11;3.33;;;1.90;;
54845;SDS011;53889;50.084;8.646;2023-05-07T00:23:37;3.22;;;1.80;;
54845;SDS011;53889;50.084;8.646;2023-05-07T00:26:04;3.05;;;1.58;;
54845;SDS011;53889;50.084;8.646;2023-05-07T00:28:31;2.75;;;1.85;;
54845;SDS011;53889;50.084;8.646;2023-05-07T00:30:58;3.08;;;1.50;;
54845;SDS011;53889;50.084;8.646;2023-05-07T00:33:26;3.75;;;2.00;;
54845;SDS011;53889;50.084;8.646;2023-05-07T00:35:52;3.22;;;2.03;;
54845;SDS011;53889;50.084;8.646;2023-05-07T00:38:20;3.58;;;2.10;;
54845;SDS011;53889;50.084;8.646;2023-05-07T00:40:46;4.13;;;2.00;;
54845;SDS011;53889;50.084;8.646;2023-05-07T00:43:13;3.05;;;1.63;;
54845;SDS011;53889;50.084;8.646;2023-05-07T00:45:40;3.53;;;1.95;;
54845;SDS011;53889;50.084;8.646;2023-05-07T00:48:07;3.70;;;1.90;;
54845;SDS011;53889;50.084;8.646;2023-05-07T00:50:35;5.45;;;1.85;;
54845;SDS011;53889;50.084;8.646;2023-05-07T00:53:01;4.32;;;2.03;;
54845;SDS011;53889;50.084;8.646;2023-05-07T00:55:28;3.30;;;1.65;;
54845;SDS011;53889;50.084;8.646;2023-05-07T00:57:55;4.18;;;1.83;;
54845;SDS011;53889;50.084;8.646;2023-05-07T01:00:22;4.32;;;1.60;;
54845;SDS011;53889;50.084;8.646;2023-05-07T01:02:50;3.95;;;1.95;;
54845;SDS011;53889;50.084;8.646;2023-05-07T01:05:17;2.97;;;1.80;;
54845;SDS011;53889;50.084;8.646;2023-05-07T01:07:46;4.05;;;2.00;;
54845;SDS011;53889;50.084;8.646;2023-05-07T01:10:14;3.75;;;1.80;;
54845;SDS011;53889;50.084;8.646;2023-05-07T01:12:41;3.78;;;1.90;;
54845;SDS011;53889;50.084;8.646;2023-05-07T01:15:09;4.22;;;1.60;;
54845;SDS011;53889;50.084;8.646;2023-05-07T01:17:36;2.50;;;1.73;;
54845;SDS011;53889;50.084;8.646;2023-05-07T01:20:11;3.10;;;1.63;;
54845;SDS011;53889;50.084;8.646;2023-05-07T01:22:40;3.85;;;1.75;;
54845;SDS011;53889;50.084;8.646;2023-05-07T01:25:09;3.42;;;1.60;;
54845;SDS011;53889;50.084;8.646;2023-05-07T01:27:40;2.90;;;1.70;;
54845;SDS011;53889;50.084;8.646;2023-05-07T01:30:07;3.00;;;1.70;;
54845;SDS011;53889;50.084;8.646;2023-05-07T01:32:36;3.55;;;1.75;;
54845;SDS011;53889;50.084;8.646;2023-05-07T01:35:09;3.63;;;1.52;;
54845;SDS011;53889;50.084;8.646;2023-05-07T01:40:08;4.22;;;1.50;;
54845;SDS011;53889;50.084;8.646;2023-05-07T01:42:36;2.88;;;1.70;;
54845;SDS011;53889;50.084;8.646;2023-05-07T01:45:03;2.58;;;1.48;;
54845;SDS011;53889;50.084;8.646;2023-05-07T01:47:31;2.80;;;1.67;;
54845;SDS011;53889;50.084;8.646;2023-05-07T01:49:59;2.78;;;1.55;;
54845;SDS011;53889;50.084;8.646;2023-05-07T01:52:26;3.17;;;1.85;;
54845;SDS011;53889;50.084;8.646;2023-05-07T01:54:53;3.30;;;1.80;;
54845;SDS011;53889;50.084;8.646;2023-05-07T01:57:21;3.35;;;1.75;;
54845;SDS011;53889;50.084;8.646;2023-05-07T01:59:48;2.97;;;1.73;;
54845;SDS011;53889;50.084;8.646;2023-05-07T02:02:15;3.47;;;1.70;;
54845;SDS011;53889;50.084;8.646;2023-05-07T02:04:43;3.30;;;1.80;;
54845;SDS011;53889;50.084;8.646;2023-05-07T02:07:11;3.58;;;1.70;;
54845;SDS011;53889;50.084;8.646;2023-05-07T02:09:38;2.63;;;1.60;;
54845;SDS011;53889;50.084;8.646;2023-05-07T02:12:05;4.07;;;1.88;;
54845;SDS011;53889;50.084;8.646;2023-05-07T02:14:33;3.72;;;1.98;;
54845;SDS011;53889;50.084;8.646;2023-05-07T02:17:00;2.67;;;1.70;;
54845;SDS011;53889;50.084;8.646;2023-05-07T02:19:26;2.55;;;1.63;;
54845;SDS011;53889;50.084;8.646;2023-05-07T02:21:53;3.78;;;1.90;;
54845;SDS011;53889;50.084;8.646;2023-05-07T02:24:20;3.88;;;1.73;;
54845;SDS011;53889;50.084;8.646;2023-05-07T02:26:47;3.75;;;1.65;;
54845;SDS011;53889;50.084;8.646;2023-05-07T02:29:14;2.55;;;1.60;;
54845;SDS011;53889;50.084;8.646;2023-05-07T02:31:42;2.58;;;1.80;;
54845;SDS011;53889;50.084;8.646;2023-05-07T02:34:09;4.15;;;2.00;;
54845;SDS011;53889;50.084;8.646;2023-05-07T02:36:36;4.35;;;1.88;;
54845;SDS011;53889;50.084;8.646;2023-05-07T02:39:07;2.58;;;1.77;;
54845;SDS011;53889;50.084;8.646;2023-05-07T02:41:34;3.33;;;1.80;;
54845;SDS011;53889;50.084;8.646;2023-05-07T02:44:01;3.53;;;1.85;;
54845;SDS011;53889;50.084;8.646;2023-05-07T02:46:28;3.58;;;1.90;;
54845;SDS011;53889;50.084;8.646;2023-05-07T02:49:01;4.65;;;1.70;;
54845;SDS011;53889;50.084;8.646;2023-05-07T02:51:29;4.80;;;1.90;;
54845;SDS011;53889;50.084;8.646;2023-05-07T02:53:59;4.00;;;1.77;;
54845;SDS011;53889;50.084;8.646;2023-05-07T02:56:26;4.18;;;2.00;;
54845;SDS011;53889;50.084;8.646;2023-05-07T02:58:53;4.28;;;1.90;;
54845;SDS011;53889;50.084;8.646;2023-05-07T03:01:22;4.35;;;1.92;;
54845;SDS011;53889;50.084;8.646;2023-05-07T03:04:01;3.33;;;1.92;;
54845;SDS011;53889;50.084;8.646;2023-05-07T03:06:28;3.45;;;1.92;;
54845;SDS011;53889;50.084;8.646;2023-05-07T03:08:55;4.25;;;1.80;;
54845;SDS011;53889;50.084;8.646;2023-05-07T03:11:22;3.83;;;1.73;;
54845;SDS011;53889;50.084;8.646;2023-05-07T03:13:48;2.60;;;1.60;;
54845;SDS011;53889;50.084;8.646;2023-05-07T03:16:17;3.13;;;1.80;;
54845;SDS011;53889;50.084;8.646;2023-05-07T03:18:43;4.05;;;2.08;;
54845;SDS011;53889;50.084;8.646;2023-05-07T03:21:11;2.70;;;1.70;;
54845;SDS011;53889;50.084;8.646;2023-05-07T03:23:38;4.32;;;1.90;;
54845;SDS011;53889;50.084;8.646;2023-05-07T03:26:05;3.10;;;1.88;;
54845;SDS011;53889;50.084;8.646;2023-05-07T03:28:31;2.97;;;1.85;;
54845;SDS011;53889;50.084;8.646;2023-05-07T03:31:02;3.03;;;1.95;;
54845;SDS011;53889;50.084;8.646;2023-05-07T03:33:30;3.85;;;2.05;;
54845;SDS011;53889;50.084;8.646;2023-05-07T03:35:58;4.60;;;1.80;;
54845;SDS011;53889;50.084;8.646;2023-05-07T03:38:26;4.40;;;1.88;;
54845;SDS011;53889;50.084;8.646;2023-05-07T03:40:53;4.35;;;1.77;;
54845;SDS011;53889;50.084;8.646;2023-05-07T03:43:20;4.82;;;1.80;;
54845;SDS011;53889;50.084;8.646;2023-05-07T03:45:55;4.05;;;1.70;;
54845;SDS011;53889;50.084;8.646;2023-05-07T03:48:24;3.17;;;1.73;;
54845;SDS011;53889;50.084;8.646;2023-05-07T03:50:54;5.85;;;1.98;;
54845;SDS011;53889;50.084;8.646;2023-05-07T03:53:21;2.75;;;1.80;;
54845;SDS011;53889;50.084;8.646;2023-05-07T03:55:50;3.50;;;1.85;;
54845;SDS011;53889;50.084;8.646;2023-05-07T03:58:16;2.67;;;1.70;;
54845;SDS011;53889;50.084;8.646;2023-05-07T04:00:44;5.45;;;2.20;;
54845;SDS011;53889;50.084;8.646;2023-05-07T04:03:21;3.55;;;2.05;;
54845;SDS011;53889;50.084;8.646;2023-05-07T04:05:48;4.03;;;1.90;;
54845;SDS011;53889;50.084;8.646;2023-05-07T04:08:15;3.03;;;1.85;;
54845;SDS011;53889;50.084;8.646;2023-05-07T04:10:46;3.08;;;1.70;;
54845;SDS011;53889;50.084;8.646;2023-05-07T04:13:14;3.67;;;1.80;;
54845;SDS011;53889;50.084;8.646;2023-05-07T04:15:41;3.20;;;2.00;;
54845;SDS011;53889;50.084;8.646;2023-05-07T04:18:10;3.60;;;1.77;;
54845;SDS011;53889;50.084;8.646;2023-05-07T04:20:38;6.45;;;2.08;;
54845;SDS011;53889;50.084;8.646;2023-05-07T04:23:09;2.75;;;1.83;;
54845;SDS011;53889;50.084;8.646;2023-05-07T04:25:35;3.20;;;1.80;;
54845;SDS011;53889;50.084;8.646;2023-05-07T04:28:09;5.13;;;2.08;;
54845;SDS011;53889;50.084;8.646;2023-05-07T04:30:38;4.25;;;2.05;;
54845;SDS011;53889;50.084;8.646;2023-05-07T04:33:06;3.75;;;1.92;;
54845;SDS011;53889;50.084;8.646;2023-05-07T04:35:34;4.10;;;1.98;;
54845;SDS011;53889;50.084;8.646;2023-05-07T04:38:03;2.83;;;1.83;;
54845;SDS011;53889;50.084;8.646;2023-05-07T04:40:30;3.78;;;1.80;;
54845;SDS011;53889;50.084;8.646;2023-05-07T04:42:59;4.00;;;2.03;;
54845;SDS011;53889;50.084;8.646;2023-05-07T04:45:29;3.33;;;1.88;;
54845;SDS011;53889;50.084;8.646;2023-05-07T04:47:57;2.97;;;1.73;;
54845;SDS011;53889;50.084;8.646;2023-05-07T04:50:24;3.85;;;1.80;;
54845;SDS011;53889;50.084;8.646;2023-05-07T04:52:54;3.58;;;2.00;;
54845;SDS011;53889;50.084;8.646;2023-05-07T04:55:23;4.05;;;1.88;;
54845;SDS011;53889;50.084;8.646;2023-05-07T04:57:50;3.38;;;1.85;;
54845;SDS011;53889;50.084;8.646;2023-05-07T05:00:17;2.92;;;1.80;;
54845;SDS011;53889;50.084;8.646;2023-05-07T05:02:47;5.15;;;2.10;;
54845;SDS011;53889;50.084;8.646;2023-05-07T05:05:19;3.42;;;2.10;;
54845;SDS011;53889;50.084;8.646;2023-05-07T05:07:48;4.70;;;2.38;;
54845;SDS011;53889;50.084;8.646;2023-05-07T05:10:16;3.55;;;1.95;;
54845;SDS011;53889;50.084;8.646;2023-05-07T05:12:43;3.22;;;2.08;;
54845;SDS011;53889;50.084;8.646;2023-05-07T05:15:11;4.40;;;2.00;;
54845;SDS011;53889;50.084;8.646;2023-05-07T05:17:38;3.45;;;2.00;;
54845;SDS011;53889;50.084;8.646;2023-05-07T05:20:06;3.80;;;1.92;;
54845;SDS011;53889;50.084;8.646;2023-05-07T05:22:36;3.33;;;2.00;;
54845;SDS011;53889;50.084;8.646;2023-05-07T05:25:03;4.82;;;2.20;;
54845;SDS011;53889;50.084;8.646;2023-05-07T05:27:31;5.55;;;2.50;;
54845;SDS011;53889;50.084;8.646;2023-05-07T05:29:57;3.75;;;1.90;;
54845;SDS011;53889;50.084;8.646;2023-05-07T05:32:24;3.47;;;2.05;;
54845;SDS011;53889;50.084;8.646;2023-05-07T05:34:54;3.95;;;2.30;;
54845;SDS011;53889;50.084;8.646;2023-05-07T05:37:21;2.97;;;1.92;;
54845;SDS011;53889;50.084;8.646;2023-05-07T05:39:50;3.05;;;2.00;;
54845;SDS011;53889;50.084;8.646;2023-05-07T05:42:18;3.20;;;2.17;;
54845;SDS011;53889;50.084;8.646;2023-05-07T05:44:45;5.00;;;2.10;;
54845;SDS011;53889;50.084;8.646;2023-05-07T05:47:11;2.38;;;1.85;;
54845;SDS011;53889;50.084;8.646;2023-05-07T05:49:38;3.20;;;2.00;;
54845;SDS011;53889;50.084;8.646;2023-05-07T05:52:06;4.13;;;2.30;;
54845;SDS011;53889;50.084;8.646;2023-05-07T05:54:33;5.07;;;2.10;;
54845;SDS011;53889;50.084;8.646;2023-05-07T05:57:01;3.25;;;1.90;;
54845;SDS011;53889;50.084;8.646;2023-05-07T05:59:29;5.63;;;2.33;;
54845;SDS011;53889;50.084;8.646;2023-05-07T06:01:56;4.15;;;2.20;;
54845;SDS011;53889;50.084;8.646;2023-05-07T06:04:24;3.72;;;2.08;;
54845;SDS011;53889;50.084;8.646;2023-05-07T06:06:50;4.10;;;2.25;;
54845;SDS011;53889;50.084;8.646;2023-05-07T06:09:17;4.75;;;2.10;;
54845;SDS011;53889;50.084;8.646;2023-05-07T06:11:44;3.88;;;2.13;;
54845;SDS011;53889;50.084;8.646;2023-05-07T06:14:13;3.53;;;2.05;;
54845;SDS011;53889;50.084;8.646;2023-05-07T06:16:40;3.72;;;2.15;;
54845;SDS011;53889;50.084;8.646;2023-05-07T06:19:07;3.78;;;1.90;;
54845;SDS011;53889;50.084;8.646;2023-05-07T06:21:34;3.30;;;2.20;;
54845;SDS011;53889;50.084;8.646;2023-05-07T06:24:00;3.78;;;1.90;;
54845;SDS011;53889;50.084;8.646;2023-05-07T06:26:27;3.72;;;2.00;;
54845;SDS011;53889;50.084;8.646;2023-05-07T06:28:54;4.68;;;2.13;;
54845;SDS011;53889;50.084;8.646;2023-05-07T06:31:28;3.42;;;1.98;;
54845;SDS011;53889;50.084;8.646;2023-05-07T06:34:02;3.30;;;2.13;;
54845;SDS011;53889;50.084;8.646;2023-05-07T06:36:36;3.40;;;2.47;;
54845;SDS011;53889;50.084;8.646;2023-05-07T06:39:11;4.22;;;2.35;;
54845;SDS011;53889;50.084;8.646;2023-05-07T06:41:38;4.25;;;2.25;;
54845;SDS011;53889;50.084;8.646;2023-05-07T06:44:08;4.05;;;2.15;;
54845;SDS011;53889;50.084;8.646;2023-05-07T06:46:44;2.85;;;1.77;;
54845;SDS011;53889;50.084;8.646;2023-05-07T06:49:12;4.85;;;2.10;;
54845;SDS011;53889;50.084;8.646;2023-05-07T06:51:39;3.92;;;2.20;;
54845;SDS011;53889;50.084;8.646;2023-05-07T06:54:05;3.03;;;2.03;;
54845;SDS011;53889;50.084;8.646;2023-05-07T06:56:35;4.80;;;2.22;;
54845;SDS011;53889;50.084;8.646;2023-05-07T06:59:03;5.65;;;2.28;;
54845;SDS011;53889;50.084;8.646;2023-05-07T07:01:34;3.08;;;2.00;;
54845;SDS011;53889;50.084;8.646;2023-05-07T07:04:03;2.78;;;1.92;;
54845;SDS011;53889;50.084;8.646;2023-05-07T07:06:31;2.85;;;1.90;;
54845;SDS011;53889;50.084;8.646;2023-05-07T07:08:59;2.92;;;2.15;;
54845;SDS011;53889;50.084;8.646;2023-05-07T07:11:26;2.60;;;1.88;;
54845;SDS011;53889;50.084;8.646;2023-05-07T07:13:53;2.95;;;1.80;;
54845;SDS011;53889;50.084;8.646;2023-05-07T07:16:20;3.38;;;1.90;;
54845;SDS011;53889;50.084;8.646;2023-05-07T07:18:49;5.43;;;2.00;;
54845;SDS011;53889;50.084;8.646;2023-05-07T07:21:17;2.63;;;1.70;;
54845;SDS011;53889;50.084;8.646;2023-05-07T07:23:45;3.90;;;2.00;;
54845;SDS011;53889;50.084;8.646;2023-05-07T07:26:13;3.42;;;2.05;;
54845;SDS011;53889;50.084;8.646;2023-05-07T07:28:43;4.25;;;2.08;;
54845;SDS011;53889;50.084;8.646;2023-05-07T07:31:11;2.47;;;1.80;;
54845;SDS011;53889;50.084;8.646;2023-05-07T07:33:38;2.70;;;1.80;;
54845;SDS011;53889;50.084;8.646;2023-05-07T07:36:06;4.30;;;2.33;;
54845;SDS011;53889;50.084;8.646;2023-05-07T07:38:35;2.38;;;1.65;;
54845;SDS011;53889;50.084;8.646;2023-05-07T07:41:03;2.63;;;1.73;;
54845;SDS011;53889;50.084;8.646;2023-05-07T07:43:30;2.63;;;1.80;;
54845;SDS011;53889;50.084;8.646;2023-05-07T07:45:57;3.85;;;1.85;;
54845;SDS011;53889;50.084;8.646;2023-05-07T07:48:25;3.17;;;1.98;;
54845;SDS011;53889;50.084;8.646;2023-05-07T07:50:52;2.70;;;1.90;;
54845;SDS011;53889;50.084;8.646;2023-05-07T07:53:19;3.60;;;2.08;;
54845;SDS011;53889;50.084;8.646;2023-05-07T07:55:48;3.38;;;1.88;;
54845;SDS011;53889;50.084;8.646;2023-05-07T07:58:17;3.60;;;2.10;;
54845;SDS011;53889;50.084;8.646;2023-05-07T08:00:45;2.92;;;1.70;;
54845;SDS011;53889;50.084;8.646;2023-05-07T08:03:13;3.50;;;2.20;;
54845;SDS011;53889;50.084;8.646;2023-05-07T08:05:45;3.95;;;2.20;;
54845;SDS011;53889;50.084;8.646;2023-05-07T08:08:11;3.15;;;2.25;;
54845;SDS011;53889;50.084;8.646;2023-05-07T08:10:40;2.78;;;2.00;;
54845;SDS011;53889;50.084;8.646;2023-05-07T08:13:17;3.80;;;2.05;;
54845;SDS011;53889;50.084;8.646;2023-05-07T08:15:43;4.07;;;2.47;;
54845;SDS011;53889;50.084;8.646;2023-05-07T08:18:11;2.85;;;2.20;;
54845;SDS011;53889;50.084;8.646;2023-05-07T08:20:38;3.40;;;2.10;;
54845;SDS011;53889;50.084;8.646;2023-05-07T08:23:09;3.97;;;2.80;;
54845;SDS011;53889;50.084;8.646;2023-05-07T08:25:37;4.20;;;2.25;;
54845;SDS011;53889;50.084;8.646;2023-05-07T08:28:05;3.45;;;2.55;;
54845;SDS011;53889;50.084;8.646;2023-05-07T08:30:33;5.97;;;4.00;;
54845;SDS011;53889;50.084;8.646;2023-05-07T08:33:00;3.22;;;2.40;;
54845;SDS011;53889;50.084;8.646;2023-05-07T08:35:27;4.40;;;2.58;;
54845;SDS011;53889;50.084;8.646;2023-05-07T08:37:54;3.72;;;2.40;;
54845;SDS011;53889;50.084;8.646;2023-05-07T08:40:21;3.78;;;2.38;;
54845;SDS011;53889;50.084;8.646;2023-05-07T08:42:52;3.92;;;2.22;;
54845;SDS011;53889;50.084;8.646;2023-05-07T08:45:19;4.47;;;2.35;;
54845;SDS011;53889;50.084;8.646;2023-05-07T08:47:51;4.75;;;2.50;;
54845;SDS011;53889;50.084;8.646;2023-05-07T08:50:23;3.22;;;2.30;;
54845;SDS011;53889;50.084;8.646;2023-05-07T08:52:51;3.20;;;2.50;;
54845;SDS011;53889;50.084;8.646;2023-05-07T08:55:19;3.38;;;2.53;;
54845;SDS011;53889;50.084;8.646;2023-05-07T08:57:47;5.13;;;2.78;;
54845;SDS011;53889;50.084;8.646;2023-05-07T09:00:15;4.20;;;2.75;;
54845;SDS011;53889;50.084;8.646;2023-05-07T09:02:45;3.47;;;2.30;;
54845;SDS011;53889;50.084;8.646;2023-05-07T09:05:13;3.50;;;2.38;;
54845;SDS011;53889;50.084;8.646;2023-05-07T09:07:40;3.40;;;2.38;;
54845;SDS011;53889;50.084;8.646;2023-05-07T09:10:08;3.30;;;2.50;;
54845;SDS011;53889;50.084;8.646;2023-05-07T09:12:37;3.75;;;2.38;;
54845;SDS011;53889;50.084;8.646;2023-05-07T09:15:06;3.45;;;2.05;;
54845;SDS011;53889;50.084;8.646;2023-05-07T09:17:34;3.40;;;2.28;;
54845;SDS011;53889;50.084;8.646;2023-05-07T09:20:04;3.25;;;2.33;;
54845;SDS011;53889;50.084;8.646;2023-05-07T09:22:33;3.03;;;2.20;;
54845;SDS011;53889;50.084;8.646;2023-05-07T09:25:05;3.05;;;2.30;;
54845;SDS011;53889;50.084;8.646;2023-05-07T09:27:34;3.55;;;2.00;;
54845;SDS011;53889;50.084;8.646;2023-05-07T09:30:05;2.40;;;1.80;;
54845;SDS011;53889;50.084;8.646;2023-05-07T09:32:34;2.72;;;2.10;;
54845;SDS011;53889;50.084;8.646;2023-05-07T09:35:03;3.05;;;1.90;;
54845;SDS011;53889;50.084;8.646;2023-05-07T09:37:31;2.72;;;1.73;;
54845;SDS011;53889;50.084;8.646;2023-05-07T09:40:00;3.00;;;1.95;;
54845;SDS011;53889;50.084;8.646;2023-05-07T09:42:30;5.03;;;2.03;;
54845;SDS011;53889;50.084;8.646;2023-05-07T09:45:00;2.70;;;2.13;;
54845;SDS011;53889;50.084;8.646;2023-05-07T09:47:33;3.00;;;1.83;;
54845;SDS011;53889;50.084;8.646;2023-05-07T09:50:05;3.13;;;1.65;;
54845;SDS011;53889;50.084;8.646;2023-05-07T09:52:34;3.53;;;2.03;;
54845;SDS011;53889;50.084;8.646;2023-05-07T09:55:05;2.20;;;1.50;;
54845;SDS011;53889;50.084;8.646;2023-05-07T09:57:33;3.35;;;1.40;;
54845;SDS011;53889;50.084;8.646;2023-05-07T10:00:04;4.03;;;1.98;;
54845;SDS011;53889;50.084;8.646;2023-05-07T10:02:45;2.35;;;1.52;;
54845;SDS011;53889;50.084;8.646;2023-05-07T10:05:17;3.38;;;1.50;;
54845;SDS011;53889;50.084;8.646;2023-05-07T10:07:45;2.95;;;1.80;;
54845;SDS011;53889;50.084;8.646;2023-05-07T10:10:14;3.33;;;1.63;;
54845;SDS011;53889;50.084;8.646;2023-05-07T10:12:43;5.32;;;1.98;;
54845;SDS011;53889;50.084;8.646;2023-05-07T10:15:16;3.50;;;1.75;;
54845;SDS011;53889;50.084;8.646;2023-05-07T10:17:47;2.40;;;1.48;;
54845;SDS011;53889;50.084;8.646;2023-05-07T10:20:16;2.25;;;1.45;;
54845;SDS011;53889;50.084;8.646;2023-05-07T10:22:45;2.45;;;1.30;;
54845;SDS011;53889;50.084;8.646;2023-05-07T10:25:20;3.17;;;1.67;;
54845;SDS011;53889;50.084;8.646;2023-05-07T10:27:49;4.28;;;1.80;;
54845;SDS011;53889;50.084;8.646;2023-05-07T10:30:21;2.10;;;1.70;;
54845;SDS011;53889;50.084;8.646;2023-05-07T10:32:55;3.60;;;2.00;;
54845;SDS011;53889;50.084;8.646;2023-05-07T10:35:30;2.28;;;1.75;;
54845;SDS011;53889;50.084;8.646;2023-05-07T10:38:02;3.47;;;1.90;;
54845;SDS011;53889;50.084;8.646;2023-05-07T10:40:32;2.63;;;1.85;;
54845;SDS011;53889;50.084;8.646;2023-05-07T10:43:01;4.60;;;2.15;;
54845;SDS011;53889;50.084;8.646;2023-05-07T10:45:34;3.10;;;2.00;;
54845;SDS011;53889;50.084;8.646;2023-05-07T10:48:09;2.65;;;1.60;;
54845;SDS011;53889;50.084;8.646;2023-05-07T10:50:38;2.65;;;1.70;;
54845;SDS011;53889;50.084;8.646;2023-05-07T10:53:20;2.40;;;1.55;;
54845;SDS011;53889;50.084;8.646;2023-05-07T10:56:26;2.25;;;1.60;;
54845;SDS011;53889;50.084;8.646;2023-05-07T11:02:01;2.53;;;1.65;;
54845;SDS011;53889;50.084;8.646;2023-05-07T11:07:53;2.80;;;1.48;;
54845;SDS011;53889;50.084;8.646;2023-05-07T11:10:22;2.60;;;1.48;;
54845;SDS011;53889;50.084;8.646;2023-05-07T11:12:57;2.65;;;1.50;;
54845;SDS011;53889;50.084;8.646;2023-05-07T11:15:43;2.58;;;1.25;;
54845;SDS011;53889;50.084;8.646;2023-05-07T11:18:23;2.20;;;1.40;;
54845;SDS011;53889;50.084;8.646;2023-05-07T11:20:52;2.35;;;1.33;;
54845;SDS011;53889;50.084;8.646;2023-05-07T11:26:47;3.70;;;1.38;;
54845;SDS011;53889;50.084;8.646;2023-05-07T11:29:19;2.67;;;1.30;;
54845;SDS011;53889;50.084;8.646;2023-05-07T11:31:49;2.22;;;1.60;;
54845;SDS011;53889;50.084;8.646;2023-05-07T11:34:20;2.50;;;1.60;;
54845;SDS011;53889;50.084;8.646;2023-05-07T11:36:49;2.22;;;1.58;;
54845;SDS011;53889;50.084;8.646;2023-05-07T11:39:29;3.72;;;1.58;;
54845;SDS011;53889;50.084;8.646;2023-05-07T11:41:58;2.88;;;1.30;;
54845;SDS011;53889;50.084;8.646;2023-05-07T11:44:27;2.35;;;1.30;;
54845;SDS011;53889;50.084;8.646;2023-05-07T11:47:07;2.00;;;1.42;;
54845;SDS011;53889;50.084;8.646;2023-05-07T11:49:34;3.45;;;1.30;;
54845;SDS011;53889;50.084;8.646;2023-05-07T11:52:00;1.65;;;1.20;;
54845;SDS011;53889;50.084;8.646;2023-05-07T11:54:34;2.95;;;1.25;;
54845;SDS011;53889;50.084;8.646;2023-05-07T11:57:01;3.83;;;1.77;;
54845;SDS011;53889;50.084;8.646;2023-05-07T11:59:30;1.25;;;0.98;;
54845;SDS011;53889;50.084;8.646;2023-05-07T12:02:03;1.85;;;1.10;;
54845;SDS011;53889;50.084;8.646;2023-05-07T12:04:30;1.83;;;1.30;;
54845;SDS011;53889;50.084;8.646;2023-05-07T12:06:57;2.00;;;1.30;;
54845;SDS011;53889;50.084;8.646;2023-05-07T12:09:23;5.18;;;1.40;;
54845;SDS011;53889;50.084;8.646;2023-05-07T12:11:51;5.70;;;1.50;;
54845;SDS011;53889;50.084;8.646;2023-05-07T12:14:18;4.93;;;1.27;;
54845;SDS011;53889;50.084;8.646;2023-05-07T12:16:46;1.80;;;1.02;;
54845;SDS011;53889;50.084;8.646;2023-05-07T12:19:13;2.17;;;1.15;;
54845;SDS011;53889;50.084;8.646;2023-05-07T12:21:40;2.65;;;1.00;;
54845;SDS011;53889;50.084;8.646;2023-05-07T12:24:07;2.88;;;1.00;;
54845;SDS011;53889;50.084;8.646;2023-05-07T12:26:37;1.88;;;1.02;;
54845;SDS011;53889;50.084;8.646;2023-05-07T12:29:05;1.77;;;1.20;;
54845;SDS011;53889;50.084;8.646;2023-05-07T12:31:32;3.22;;;1.30;;
54845;SDS011;53889;50.084;8.646;2023-05-07T12:34:00;2.22;;;1.10;;
54845;SDS011;53889;50.084;8.646;2023-05-07T12:36:36;2.50;;;1.30;;
54845;SDS011;53889;50.084;8.646;2023-05-07T12:39:04;1.63;;;1.10;;
54845;SDS011;53889;50.084;8.646;2023-05-07T12:41:34;2.40;;;1.40;;
54845;SDS011;53889;50.084;8.646;2023-05-07T12:44:03;2.08;;;1.13;;
54845;SDS011;53889;50.084;8.646;2023-05-07T12:46:31;1.92;;;1.02;;
54845;SDS011;53889;50.084;8.646;2023-05-07T12:48:58;2.97;;;1.30;;
54845;SDS011;53889;50.084;8.646;2023-05-07T12:51:26;4.43;;;1.30;;
54845;SDS011;53889;50.084;8.646;2023-05-07T12:53:55;2.40;;;1.23;;
54845;SDS011;53889;50.084;8.646;2023-05-07T12:56:22;3.65;;;1.25;;
54845;SDS011;53889;50.084;8.646;2023-05-07T12:58:49;2.00;;;1.33;;
54845;SDS011;53889;50.084;8.646;2023-05-07T13:01:16;2.30;;;1.30;;
54845;SDS011;53889;50.084;8.646;2023-05-07T13:03:47;1.75;;;1.20;;
54845;SDS011;53889;50.084;8.646;2023-05-07T13:06:15;2.30;;;1.27;;
54845;SDS011;53889;50.084;8.646;2023-05-07T13:08:43;2.33;;;1.38;;
54845;SDS011;53889;50.084;8.646;2023-05-07T13:11:10;3.90;;;1.92;;
54845;SDS011;53889;50.084;8.646;2023-05-07T13:13:37;4.03;;;1.90;;
54845;SDS011;53889;50.084;8.646;2023-05-07T13:16:05;2.20;;;1.05;;
54845;SDS011;53889;50.084;8.646;2023-05-07T13:18:34;1.38;;;1.10;;
54845;SDS011;53889;50.084;8.646;2023-05-07T13:21:01;3.10;;;1.20;;
54845;SDS011;53889;50.084;8.646;2023-05-07T13:23:28;1.48;;;1.10;;
54845;SDS011;53889;50.084;8.646;2023-05-07T13:25:56;2.67;;;1.25;;
54845;SDS011;53889;50.084;8.646;2023-05-07T13:28:23;2.88;;;1.60;;
54845;SDS011;53889;50.084;8.646;2023-05-07T13:30:50;2.40;;;1.40;;
54845;SDS011;53889;50.084;8.646;2023-05-07T13:33:17;3.03;;;1.25;;
54845;SDS011;53889;50.084;8.646;2023-05-07T13:35:44;1.67;;;1.13;;
54845;SDS011;53889;50.084;8.646;2023-05-07T13:38:11;3.47;;;1.40;;
54845;SDS011;53889;50.084;8.646;2023-05-07T13:40:38;5.30;;;1.30;;
54845;SDS011;53889;50.084;8.646;2023-05-07T13:43:06;3.47;;;1.45;;
54845;SDS011;53889;50.084;8.646;2023-05-07T13:45:33;1.92;;;1.20;;
54845;SDS011;53889;50.084;8.646;2023-05-07T13:47:59;2.63;;;1.23;;
54845;SDS011;53889;50.084;8.646;2023-05-07T13:50:26;1.92;;;1.20;;
54845;SDS011;53889;50.084;8.646;2023-05-07T13:52:54;2.90;;;1.40;;
54845;SDS011;53889;50.084;8.646;2023-05-07T13:55:22;2.90;;;1.17;;
54845;SDS011;53889;50.084;8.646;2023-05-07T13:57:54;1.95;;;1.13;;
54845;SDS011;53889;50.084;8.646;2023-05-07T14:00:23;3.30;;;1.35;;
54845;SDS011;53889;50.084;8.646;2023-05-07T14:02:50;2.17;;;1.45;;
54845;SDS011;53889;50.084;8.646;2023-05-07T14:05:16;2.38;;;1.30;;
54845;SDS011;53889;50.084;8.646;2023-05-07T14:07:43;3.03;;;1.60;;
54845;SDS011;53889;50.084;8.646;2023-05-07T14:10:10;3.40;;;1.70;;
54845;SDS011;53889;50.084;8.646;2023-05-07T14:12:38;2.47;;;1.80;;
54845;SDS011;53889;50.084;8.646;2023-05-07T14:15:05;3.00;;;1.63;;
54845;SDS011;53889;50.084;8.646;2023-05-07T14:17:34;2.45;;;1.60;;
54845;SDS011;53889;50.084;8.646;2023-05-07T14:20:01;2.90;;;1.55;;
54845;SDS011;53889;50.084;8.646;2023-05-07T14:22:28;2.97;;;1.42;;
54845;SDS011;53889;50.084;8.646;2023-05-07T14:24:54;3.90;;;1.70;;
54845;SDS011;53889;50.084;8.646;2023-05-07T14:27:21;2.88;;;1.60;;
54845;SDS011;53889;50.084;8.646;2023-05-07T14:29:48;2.75;;;1.60;;
54845;SDS011;53889;50.084;8.646;2023-05-07T14:32:16;2.58;;;1.67;;
54845;SDS011;53889;50.084;8.646;2023-05-07T14:34:44;2.95;;;1.50;;
54845;SDS011;53889;50.084;8.646;2023-05-07T14:37:11;2.50;;;1.60;;
54845;SDS011;53889;50.084;8.646;2023-05-07T14:39:38;3.22;;;1.60;;
54845;SDS011;53889;50.084;8.646;2023-05-07T14:42:05;3.60;;;1.60;;
54845;SDS011;53889;50.084;8.646;2023-05-07T14:44:32;2.70;;;1.80;;
54845;SDS011;53889;50.084;8.646;2023-05-07T14:46:59;2.65;;;1.90;;
54845;SDS011;53889;50.084;8.646;2023-05-07T14:49:26;2.55;;;1.67;;
54845;SDS011;53889;50.084;8.646;2023-05-07T14:51:56;2.63;;;1.70;;
54845;SDS011;53889;50.084;8.646;2023-05-07T14:54:23;4.22;;;1.80;;
54845;SDS011;53889;50.084;8.646;2023-05-07T14:56:50;2.33;;;1.60;;
54845;SDS011;53889;50.084;8.646;2023-05-07T14:59:17;2.95;;;1.67;;
54845;SDS011;53889;50.084;8.646;2023-05-07T15:01:46;5.15;;;2.10;;
54845;SDS011;53889;50.084;8.646;2023-05-07T15:04:12;2.88;;;1.85;;
54845;SDS011;53889;50.084;8.646;2023-05-07T15:06:39;2.67;;;1.85;;
54845;SDS011;53889;50.084;8.646;2023-05-07T15:09:07;2.50;;;1.70;;